createdAt,value
2022-11-24T00:01:15.473Z,96.60
2022-11-24T00:03:47.631Z,96.60
2022-11-24T00:06:16.136Z,96.60
2022-11-24T00:08:45.203Z,96.60
2022-11-24T00:11:18.138Z,96.60
2022-11-24T00:13:45.703Z,96.60
2022-11-24T00:16:33.936Z,96.60
2022-11-24T00:19:02.637Z,96.60
2022-11-24T00:21:31.355Z,96.60
2022-11-24T00:23:59.394Z,96.60
2022-11-24T00:26:30.859Z,96.60
2022-11-24T00:29:00.387Z,96.60
2022-11-24T00:31:29.595Z,96.60
2022-11-24T00:33:58.602Z,96.60
2022-11-24T00:36:27.699Z,96.60
2022-11-24T00:38:59.729Z,96.60
2022-11-24T00:41:27.592Z,96.60
2022-11-24T00:43:54.895Z,96.60
2022-11-24T00:46:23.175Z,96.60
2022-11-24T00:48:50.609Z,96.60
2022-11-24T00:51:19.026Z,96.60
2022-11-24T00:53:45.877Z,96.60
2022-11-24T00:56:13.660Z,96.60
2022-11-24T00:58:40.505Z,96.60
2022-11-24T01:01:11.378Z,96.60
2022-11-24T01:03:38.445Z,96.60
2022-11-24T01:06:25.971Z,96.60
2022-11-24T01:08:53.097Z,96.60
2022-11-24T01:11:23.342Z,96.60
2022-11-24T01:13:54.943Z,96.60
2022-11-24T01:16:23.599Z,96.60
2022-11-24T01:18:50.810Z,96.60
2022-11-24T01:21:18.638Z,96.60
2022-11-24T01:23:45.739Z,96.60
2022-11-24T01:26:15.857Z,96.60
2022-11-24T01:28:47.219Z,96.60
2022-11-24T01:31:16.868Z,96.60
2022-11-24T01:33:43.846Z,96.60
2022-11-24T01:36:10.794Z,96.60
2022-11-24T01:38:37.581Z,96.60
2022-11-24T01:41:16.598Z,96.60
2022-11-24T01:43:45.205Z,96.60
2022-11-24T01:46:19.026Z,96.60
2022-11-24T01:49:18.625Z,96.60
2022-11-24T01:51:59.124Z,96.60
2022-11-24T01:54:30.433Z,96.60
2022-11-24T01:57:07.637Z,96.60
2022-11-24T01:59:34.697Z,96.60
2022-11-24T02:02:02.276Z,96.60
2022-11-24T02:04:33.225Z,96.60
2022-11-24T02:07:03.410Z,96.60
2022-11-24T02:09:43.055Z,96.60
2022-11-24T02:12:09.981Z,96.60
2022-11-24T02:14:38.476Z,96.60
2022-11-24T02:17:05.313Z,96.60
2022-11-24T02:19:41.224Z,96.60
2022-11-24T02:22:18.529Z,96.60
2022-11-24T02:24:52.034Z,96.60
2022-11-24T02:27:20.022Z,96.60
2022-11-24T02:29:47.798Z,96.60
2022-11-24T02:32:16.165Z,96.60
2022-11-24T02:34:42.948Z,96.60
2022-11-24T02:37:09.845Z,96.60
2022-11-24T02:39:36.766Z,96.60
2022-11-24T02:42:08.105Z,96.60
2022-11-24T02:44:40.201Z,96.60
2022-11-24T02:47:09.832Z,96.60
2022-11-24T02:49:36.980Z,96.60
2022-11-24T02:52:04.820Z,96.60
2022-11-24T02:54:32.394Z,96.60
2022-11-24T02:56:59.785Z,96.60
2022-11-24T02:59:26.887Z,96.60
2022-11-24T03:01:53.808Z,96.60
2022-11-24T03:04:20.824Z,96.60
2022-11-24T03:06:47.776Z,96.60
2022-11-24T03:09:14.842Z,96.60
2022-11-24T03:11:41.728Z,96.60
2022-11-24T03:14:08.929Z,96.60
2022-11-24T03:16:36.251Z,96.60
2022-11-24T03:19:03.503Z,96.60
2022-11-24T03:21:30.414Z,96.60
2022-11-24T03:23:57.575Z,96.60
2022-11-24T03:26:25.850Z,96.60
2022-11-24T03:28:56.268Z,96.60
2022-11-24T03:31:24.287Z,96.60
2022-11-24T03:33:51.222Z,96.60
2022-11-24T03:36:18.208Z,96.60
2022-11-24T03:38:45.619Z,96.60
2022-11-24T03:41:12.708Z,96.60
2022-11-24T03:43:43.697Z,96.60
2022-11-24T03:46:12.150Z,96.60
2022-11-24T03:48:39.443Z,96.60
2022-11-24T03:51:06.401Z,96.60
2022-11-24T03:53:33.926Z,96.60
2022-11-24T03:56:02.180Z,96.60
2022-11-24T03:58:30.057Z,96.60
2022-11-24T04:00:57.378Z,96.60
2022-11-24T04:03:24.564Z,96.60
2022-11-24T04:05:51.977Z,96.60
2022-11-24T04:08:19.170Z,96.60
2022-11-24T04:10:51.208Z,96.60
2022-11-24T04:13:24.614Z,96.60
2022-11-24T04:15:52.014Z,96.60
2022-11-24T04:18:19.109Z,96.60
2022-11-24T04:20:48.746Z,96.60
2022-11-24T04:23:15.548Z,96.60
2022-11-24T04:25:43.693Z,96.60
2022-11-24T04:28:12.022Z,96.60
2022-11-24T04:30:40.209Z,96.60
2022-11-24T04:33:07.088Z,96.60
2022-11-24T04:35:35.148Z,96.60
2022-11-24T04:38:05.245Z,96.60
2022-11-24T04:40:32.177Z,96.60
2022-11-24T04:42:58.972Z,96.60
2022-11-24T04:45:25.808Z,96.60
2022-11-24T04:47:52.723Z,96.60
2022-11-24T04:50:19.534Z,96.60
2022-11-24T04:52:46.332Z,96.60
2022-11-24T04:55:13.116Z,96.60
2022-11-24T04:57:40.079Z,96.60
2022-11-24T05:00:08.009Z,96.60
2022-11-24T05:02:34.982Z,96.60
2022-11-24T05:05:01.886Z,96.60
2022-11-24T05:07:29.111Z,96.60
2022-11-24T05:10:14.791Z,96.60
2022-11-24T05:12:42.429Z,96.60
2022-11-24T05:15:11.557Z,96.60
2022-11-24T05:17:39.206Z,96.60
2022-11-24T05:20:07.161Z,96.60
2022-11-24T05:22:34.106Z,96.60
2022-11-24T05:25:01.692Z,96.60
2022-11-24T05:27:28.533Z,96.60
2022-11-24T05:29:55.339Z,96.60
2022-11-24T05:32:22.101Z,96.60
2022-11-24T05:34:49.415Z,96.60
2022-11-24T05:37:16.678Z,96.60
2022-11-24T05:39:43.492Z,96.60
2022-11-24T05:42:28.739Z,96.60
2022-11-24T05:44:55.720Z,96.60
2022-11-24T05:47:22.628Z,96.60
2022-11-24T05:49:49.437Z,96.60
2022-11-24T05:52:17.151Z,96.60
2022-11-24T05:54:44.040Z,96.60
2022-11-24T05:57:10.771Z,96.60
2022-11-24T05:59:37.515Z,96.60
2022-11-24T06:02:04.573Z,96.60
2022-11-24T06:04:31.850Z,96.60
2022-11-24T06:06:58.854Z,96.60
2022-11-24T06:09:25.595Z,96.60
2022-11-24T06:11:52.352Z,96.60
2022-11-24T06:14:19.200Z,96.60
2022-11-24T06:16:46.032Z,96.60
2022-11-24T06:19:13.061Z,96.60
2022-11-24T06:21:40.001Z,96.60
2022-11-24T06:24:07.243Z,96.60
2022-11-24T06:26:34.174Z,96.60
2022-11-24T06:29:01.487Z,96.60
2022-11-24T06:31:28.297Z,96.60
2022-11-24T06:33:55.061Z,96.60
2022-11-24T06:36:21.849Z,96.60
2022-11-24T06:38:48.661Z,96.60
2022-11-24T06:41:16.887Z,96.60
2022-11-24T06:43:45.033Z,96.60
2022-11-24T06:46:12.539Z,96.60
2022-11-24T06:48:39.386Z,96.60
2022-11-24T06:51:08.642Z,96.60
2022-11-24T06:53:38.265Z,96.60
2022-11-24T06:56:13.748Z,96.60
2022-11-24T06:58:44.922Z,96.60
2022-11-24T07:01:23.018Z,96.60
2022-11-24T07:03:50.967Z,96.60
2022-11-24T07:06:18.915Z,96.60
2022-11-24T07:08:46.022Z,96.60
2022-11-24T07:11:16.434Z,96.60
2022-11-24T07:13:43.817Z,96.60
2022-11-24T07:16:16.756Z,96.60
2022-11-24T07:18:44.852Z,96.60
2022-11-24T07:21:12.555Z,96.60
2022-11-24T07:23:39.521Z,96.60
2022-11-24T07:26:07.617Z,96.60
2022-11-24T07:28:36.506Z,96.60
2022-11-24T07:31:11.224Z,96.60
2022-11-24T07:33:38.102Z,96.60
2022-11-24T07:36:06.958Z,96.60
2022-11-24T07:38:34.828Z,96.60
2022-11-24T07:41:05.952Z,96.60
2022-11-24T07:43:34.115Z,96.60
2022-11-24T07:46:01.751Z,96.60
2022-11-24T07:48:28.597Z,96.60
2022-11-24T07:50:56.416Z,96.60
2022-11-24T07:53:23.526Z,96.60
2022-11-24T07:55:55.593Z,96.60
2022-11-24T07:58:23.325Z,96.60
2022-11-24T08:00:51.510Z,96.60
2022-11-24T08:03:18.414Z,96.60
2022-11-24T08:08:44.197Z,96.60
2022-11-24T08:11:13.550Z,96.60
2022-11-24T08:13:40.922Z,96.60
2022-11-24T08:16:13.684Z,96.60
2022-11-24T08:18:41.050Z,96.60
2022-11-24T08:21:11.332Z,96.60
2022-11-24T08:23:38.279Z,96.60
2022-11-24T08:26:13.859Z,96.60
2022-11-24T08:28:40.612Z,96.60
2022-11-24T08:31:11.287Z,96.60
2022-11-24T08:33:38.965Z,96.60
2022-11-24T08:36:19.372Z,96.60
2022-11-24T08:38:47.109Z,96.60
2022-11-24T08:41:16.321Z,96.60
2022-11-24T08:43:43.465Z,96.60
2022-11-24T08:46:13.172Z,96.60
2022-11-24T08:48:40.593Z,96.60
2022-11-24T08:51:10.235Z,96.60
2022-11-24T08:53:38.277Z,96.60
2022-11-24T08:56:06.259Z,96.60
2022-11-24T08:58:33.546Z,96.60
2022-11-24T09:01:11.688Z,96.60
2022-11-24T09:03:41.244Z,96.60
2022-11-24T09:06:11.939Z,96.60
2022-11-24T09:08:39.119Z,96.60
2022-11-24T09:11:11.505Z,96.60
2022-11-24T09:13:39.222Z,96.60
2022-11-24T09:16:11.869Z,96.60
2022-11-24T09:18:39.179Z,96.60
2022-11-24T09:21:11.234Z,96.60
2022-11-24T09:23:38.904Z,96.60
2022-11-24T09:26:10.050Z,96.60
2022-11-24T09:28:37.250Z,96.60
2022-11-24T09:31:05.765Z,96.60
2022-11-24T09:33:33.668Z,96.60
2022-11-24T09:36:01.351Z,96.60
2022-11-24T09:38:28.570Z,96.60
2022-11-24T09:40:56.105Z,96.60
2022-11-24T09:43:30.018Z,96.60
2022-11-24T09:46:20.002Z,96.60
2022-11-24T09:48:51.219Z,96.60
2022-11-24T09:51:28.688Z,96.60
2022-11-24T09:54:06.175Z,96.60
2022-11-24T09:56:35.552Z,96.60
2022-11-24T09:59:21.589Z,96.60
2022-11-24T10:01:49.868Z,96.60
2022-11-24T10:04:42.024Z,96.60
2022-11-24T10:07:11.907Z,96.60
2022-11-24T10:09:44.808Z,96.60
2022-11-24T10:12:27.470Z,96.60
2022-11-24T10:15:31.868Z,96.60
2022-11-24T10:18:16.996Z,96.60
2022-11-24T10:21:29.525Z,96.60
2022-11-24T10:24:23.527Z,96.60
2022-11-24T10:27:22.028Z,96.60
2022-11-24T10:29:51.757Z,96.60
2022-11-24T10:32:36.646Z,96.50
2022-11-24T10:35:16.048Z,96.40
2022-11-24T10:38:25.540Z,95.90
2022-11-24T10:40:58.209Z,96.30
2022-11-24T10:43:28.281Z,96.00
2022-11-24T10:46:19.079Z,96.60
2022-11-24T10:49:06.448Z,96.50
2022-11-24T10:52:07.104Z,96.60
2022-11-24T10:54:36.064Z,95.60
2022-11-24T10:57:03.228Z,95.90
2022-11-24T10:59:36.741Z,95.80
2022-11-24T11:02:33.817Z,95.60
2022-11-24T11:05:26.425Z,95.10
2022-11-24T11:08:32.229Z,95.30
2022-11-24T11:11:16.772Z,95.50
2022-11-24T11:14:03.802Z,95.40
2022-11-24T11:16:41.664Z,96.40
2022-11-24T11:19:52.388Z,96.60
2022-11-24T11:22:28.942Z,96.60
2022-11-24T11:25:03.982Z,96.60
2022-11-24T11:27:30.804Z,96.60
2022-11-24T11:36:11.168Z,96.60
2022-11-24T11:38:40.666Z,96.60
2022-11-24T11:41:16.195Z,96.60
2022-11-24T11:43:45.754Z,96.60
2022-11-24T11:46:16.270Z,96.60
2022-11-24T11:48:46.846Z,96.60
2022-11-24T11:51:44.857Z,96.60
2022-11-24T11:54:11.627Z,96.60
2022-11-24T11:56:47.980Z,96.60
2022-11-24T11:59:23.829Z,96.60
2022-11-24T12:02:31.758Z,96.60
2022-11-24T12:05:33.502Z,96.60
2022-11-24T12:08:20.803Z,96.60
2022-11-24T12:10:58.272Z,96.60
2022-11-24T12:13:54.616Z,96.40
2022-11-24T12:16:46.570Z,96.40
2022-11-24T12:19:21.906Z,95.70
2022-11-24T12:22:38.860Z,96.30
2022-11-24T12:25:20.962Z,96.40
2022-11-24T12:27:56.574Z,96.60
2022-11-24T12:30:24.075Z,96.60
2022-11-24T12:33:29.488Z,96.50
2022-11-24T12:36:06.540Z,96.30
2022-11-24T12:38:42.417Z,96.50
2022-11-24T12:41:41.171Z,95.90
2022-11-24T12:44:38.129Z,96.60
2022-11-24T12:47:17.736Z,96.00
2022-11-24T12:49:56.450Z,95.60
2022-11-24T12:52:28.453Z,95.60
2022-11-24T12:54:56.504Z,94.50
2022-11-24T12:57:49.272Z,94.30
2022-11-24T13:00:16.499Z,94.40
2022-11-24T13:03:20.910Z,94.40
2022-11-24T13:06:20.293Z,93.80
2022-11-24T13:08:47.350Z,94.00
2022-11-24T13:11:23.295Z,94.30
2022-11-24T13:13:58.487Z,94.70
2022-11-24T13:16:59.289Z,95.70
2022-11-24T13:19:25.635Z,95.40
2022-11-24T13:22:15.283Z,95.30
2022-11-24T13:24:43.032Z,94.70
2022-11-24T13:27:15.942Z,95.30
2022-11-24T13:29:47.515Z,96.10
2022-11-24T13:32:17.686Z,96.60
2022-11-24T13:34:45.831Z,96.60
2022-11-24T13:37:34.508Z,96.60
2022-11-24T13:40:23.221Z,96.60
2022-11-24T13:42:56.482Z,96.60
2022-11-24T13:45:41.914Z,96.60
2022-11-24T13:48:21.744Z,96.60
2022-11-24T13:50:53.204Z,96.60
2022-11-24T13:53:40.788Z,96.60
2022-11-24T13:56:14.090Z,96.60
2022-11-24T13:58:42.747Z,96.60
2022-11-24T14:01:18.382Z,96.60
2022-11-24T14:06:51.444Z,96.60
2022-11-24T14:09:37.654Z,96.60
2022-11-24T14:12:13.313Z,96.60
2022-11-24T14:14:41.708Z,96.60
2022-11-24T14:17:23.475Z,96.60
2022-11-24T14:19:52.826Z,96.60
2022-11-24T14:22:36.882Z,96.60
2022-11-24T14:25:04.263Z,96.60
2022-11-24T14:27:36.748Z,96.60
2022-11-24T14:30:13.656Z,96.60
2022-11-24T14:32:40.654Z,96.60
2022-11-24T14:35:26.112Z,96.60
2022-11-24T14:37:53.243Z,96.60
2022-11-24T14:40:51.823Z,96.60
2022-11-24T14:43:22.362Z,96.60
2022-11-24T14:45:58.001Z,96.60
2022-11-24T14:48:31.339Z,96.60
2022-11-24T14:51:26.395Z,96.60
2022-11-24T14:53:58.037Z,96.60
2022-11-24T14:56:28.232Z,96.60
2022-11-24T14:58:56.985Z,96.60
2022-11-24T15:01:34.293Z,96.60
2022-11-24T15:07:29.329Z,96.60
2022-11-24T15:10:01.413Z,96.60
2022-11-24T15:12:43.282Z,96.60
2022-11-24T15:15:18.236Z,96.60
2022-11-24T15:17:57.588Z,96.60
2022-11-24T15:20:30.317Z,96.60
2022-11-24T15:23:15.912Z,96.60
2022-11-24T15:25:44.162Z,96.60
2022-11-24T15:28:12.001Z,96.60
2022-11-24T15:30:38.809Z,96.60
2022-11-24T15:33:16.618Z,96.60
2022-11-24T15:35:43.740Z,96.60
2022-11-24T15:38:10.803Z,96.60
2022-11-24T15:40:42.744Z,96.60
2022-11-24T15:43:21.505Z,96.60
2022-11-24T15:45:48.398Z,96.60
2022-11-24T15:48:18.214Z,96.60
2022-11-24T15:50:46.191Z,96.60
2022-11-24T15:53:21.238Z,96.60
2022-11-24T15:55:48.690Z,96.60
2022-11-24T15:58:16.190Z,96.60
2022-11-24T16:00:44.210Z,96.60
2022-11-24T16:03:44.568Z,96.60
2022-11-24T16:05:59.127Z,96.60
2022-11-24T16:08:25.877Z,96.60
2022-11-24T16:10:52.618Z,96.60
2022-11-24T16:13:19.337Z,96.60
2022-11-24T16:15:46.866Z,96.60
2022-11-24T16:18:15.649Z,96.60
2022-11-24T16:20:42.480Z,96.60
2022-11-24T16:23:09.417Z,96.60
2022-11-24T16:25:36.187Z,96.60
2022-11-24T16:28:02.916Z,96.60
2022-11-24T16:30:29.731Z,96.60
2022-11-24T16:32:56.981Z,96.60
2022-11-24T16:35:23.725Z,96.60
2022-11-24T16:37:50.528Z,96.60
2022-11-24T16:40:18.423Z,96.60
2022-11-24T16:42:45.356Z,96.60
2022-11-24T16:45:13.190Z,96.60
2022-11-24T16:47:41.630Z,96.60
2022-11-24T16:50:10.167Z,96.60
2022-11-24T16:52:37.619Z,96.60
2022-11-24T16:55:06.274Z,96.60
2022-11-24T16:57:33.038Z,96.60
2022-11-24T16:59:59.872Z,96.60
2022-11-24T17:02:26.732Z,96.60
2022-11-24T17:04:53.608Z,96.60
2022-11-24T17:07:20.660Z,96.60
2022-11-24T17:09:48.342Z,96.60
2022-11-24T17:12:15.078Z,96.60
2022-11-24T17:14:41.850Z,96.60
2022-11-24T17:17:08.739Z,96.60
2022-11-24T17:19:35.665Z,96.60
2022-11-24T17:22:02.360Z,96.60
2022-11-24T17:24:29.375Z,96.60
2022-11-24T17:26:56.284Z,96.60
2022-11-24T17:29:23.759Z,96.60
2022-11-24T17:31:51.217Z,96.60
2022-11-24T17:34:18.270Z,96.60
2022-11-24T17:36:46.012Z,96.60
2022-11-24T17:39:12.849Z,96.60
2022-11-24T17:41:39.680Z,96.60
2022-11-24T17:44:08.524Z,96.60
2022-11-24T17:46:37.054Z,96.60
2022-11-24T17:49:03.945Z,96.60
2022-11-24T17:51:30.661Z,96.60
2022-11-24T17:53:57.577Z,96.60
2022-11-24T17:56:27.004Z,96.60
2022-11-24T17:58:56.402Z,96.60
2022-11-24T18:01:23.922Z,96.60
2022-11-24T18:03:53.730Z,96.60
2022-11-24T18:06:24.143Z,96.60
2022-11-24T18:08:51.736Z,96.60
2022-11-24T18:11:24.640Z,96.60
2022-11-24T18:14:00.205Z,96.60
2022-11-24T18:16:29.880Z,96.60
2022-11-24T18:19:08.342Z,96.60
2022-11-24T18:21:36.092Z,96.60
2022-11-24T18:24:03.619Z,96.60
2022-11-24T18:26:30.454Z,96.60
2022-11-24T18:28:57.301Z,96.60
2022-11-24T18:31:24.190Z,96.60
2022-11-24T18:33:51.026Z,96.60
2022-11-24T18:36:23.596Z,96.60
2022-11-24T18:38:54.101Z,96.60
2022-11-24T18:41:22.316Z,96.60
2022-11-24T18:43:49.326Z,96.60
2022-11-24T18:46:17.739Z,96.60
2022-11-24T18:48:45.248Z,96.60
2022-11-24T18:51:16.077Z,96.60
2022-11-24T18:53:44.028Z,96.60
2022-11-24T18:56:16.305Z,96.60
2022-11-24T18:58:43.917Z,96.60
2022-11-24T19:01:20.058Z,96.60
2022-11-24T19:03:52.801Z,96.60
2022-11-24T19:06:28.996Z,96.60
2022-11-24T19:08:56.122Z,96.60
2022-11-24T19:11:25.512Z,96.60
2022-11-24T19:13:52.436Z,96.60
2022-11-24T19:16:20.685Z,96.60
2022-11-24T19:18:53.725Z,96.60
2022-11-24T19:21:21.693Z,96.60
2022-11-24T19:23:49.378Z,96.60
2022-11-24T19:26:16.221Z,96.60
2022-11-24T19:28:43.161Z,96.60
2022-11-24T19:31:13.772Z,96.60
2022-11-24T19:33:41.472Z,96.60
2022-11-24T19:36:13.132Z,96.60
2022-11-24T19:38:41.086Z,96.60
2022-11-24T19:41:10.493Z,96.60
2022-11-24T19:43:37.322Z,96.60
2022-11-24T19:46:13.222Z,96.60
2022-11-24T19:48:45.760Z,96.60
2022-11-24T19:51:18.771Z,96.60
2022-11-24T19:53:46.182Z,96.60
2022-11-24T19:56:16.268Z,96.60
2022-11-24T19:58:43.244Z,96.60
2022-11-24T20:01:16.179Z,96.60
2022-11-24T20:03:44.740Z,96.60
2022-11-24T20:06:13.090Z,96.60
2022-11-24T20:08:41.270Z,96.60
2022-11-24T20:11:16.724Z,96.60
2022-11-24T20:13:45.450Z,96.60
2022-11-24T20:16:15.236Z,96.60
2022-11-24T20:18:44.732Z,96.60
2022-11-24T20:21:14.542Z,96.60
2022-11-24T20:23:42.408Z,96.60
2022-11-24T20:26:14.897Z,96.60
2022-11-24T20:28:42.807Z,96.60
2022-11-24T20:31:12.638Z,96.60
2022-11-24T20:33:40.606Z,96.60
2022-11-24T20:36:10.534Z,96.60
2022-11-24T20:38:38.233Z,96.60
2022-11-24T20:41:11.100Z,96.60
2022-11-24T20:43:39.306Z,96.60
2022-11-24T20:46:10.210Z,96.60
2022-11-24T20:48:38.060Z,96.60
2022-11-24T20:51:17.322Z,96.60
2022-11-24T20:53:44.428Z,96.60
2022-11-24T20:56:17.789Z,96.60
2022-11-24T20:58:44.799Z,96.60
2022-11-24T21:01:14.837Z,96.60
2022-11-24T21:03:45.169Z,96.60
2022-11-24T21:06:13.473Z,96.60
2022-11-24T21:08:42.055Z,96.60
2022-11-24T21:11:11.425Z,96.60
2022-11-24T21:13:39.879Z,96.60
2022-11-24T21:16:25.312Z,96.60
2022-11-24T21:18:55.729Z,96.60
2022-11-24T21:21:24.156Z,96.60
2022-11-24T21:23:51.677Z,96.60
2022-11-24T21:26:19.478Z,96.60
2022-11-24T21:28:47.673Z,96.60
2022-11-24T21:31:17.439Z,96.60
2022-11-24T21:33:49.764Z,96.60
2022-11-24T21:36:19.384Z,96.60
2022-11-24T21:38:54.347Z,96.60
2022-11-24T21:41:22.985Z,96.60
2022-11-24T21:43:50.211Z,96.60
2022-11-24T21:46:17.295Z,96.60
2022-11-24T21:48:44.664Z,96.60
2022-11-24T21:51:17.083Z,96.60
2022-11-24T21:53:45.090Z,96.60
2022-11-24T21:56:20.579Z,96.60
2022-11-24T21:58:53.245Z,96.60
2022-11-24T22:01:22.962Z,96.60
2022-11-24T22:03:51.204Z,96.60
2022-11-24T22:06:19.513Z,96.60
2022-11-24T22:08:47.800Z,96.60
2022-11-24T22:11:22.761Z,96.60
2022-11-24T22:13:52.825Z,96.60
2022-11-24T22:16:24.228Z,96.60
2022-11-24T22:18:51.568Z,96.60
2022-11-24T22:21:22.323Z,96.60
2022-11-24T22:23:51.911Z,96.60
2022-11-24T22:26:34.262Z,96.60
2022-11-24T22:29:04.139Z,96.60
2022-11-24T22:31:45.451Z,96.60
2022-11-24T22:34:19.251Z,96.60
2022-11-24T22:36:46.011Z,96.60
2022-11-24T22:39:13.215Z,96.60
2022-11-24T22:41:40.045Z,96.60
2022-11-24T22:44:06.952Z,96.60
2022-11-24T22:46:33.885Z,96.60
2022-11-24T22:49:01.894Z,96.60
2022-11-24T22:51:31.357Z,96.60
2022-11-24T22:54:00.336Z,96.60
2022-11-24T22:56:32.402Z,96.60
2022-11-24T22:59:00.508Z,96.60
2022-11-24T23:01:29.148Z,96.60
2022-11-24T23:03:55.966Z,96.60
2022-11-24T23:06:25.715Z,96.60
2022-11-24T23:08:53.279Z,96.60
2022-11-24T23:11:31.573Z,96.60
2022-11-24T23:14:02.881Z,96.60
2022-11-24T23:16:30.150Z,96.60
2022-11-24T23:18:57.575Z,96.60
2022-11-24T23:21:29.601Z,96.60
2022-11-24T23:23:58.337Z,96.60
2022-11-24T23:26:31.009Z,96.60
2022-11-24T23:28:57.801Z,96.60
2022-11-24T23:31:29.267Z,96.60
2022-11-24T23:34:01.397Z,96.60
2022-11-24T23:36:28.941Z,96.60
2022-11-24T23:38:55.992Z,96.60
2022-11-24T23:41:25.226Z,96.60
2022-11-24T23:43:52.823Z,96.60
2022-11-24T23:46:22.127Z,96.60
2022-11-24T23:48:50.440Z,96.60
2022-11-24T23:51:22.664Z,96.60
2022-11-24T23:53:49.942Z,96.60
2022-11-24T23:56:21.903Z,96.60
2022-11-24T23:58:49.360Z,96.60
